Time;durP1;ratioP1;P1;durP2;ratioP2;P2;SDS_P1;SDS_P2;PMS_P1;PMS_P2;Temp;Humidity;BMP_temperature;BMP_pressure;BME280_temperature;BME280_humidity;BME280_pressure;Samples;Min_cycle;Max_cycle;Signal;HPM_P1;HPM_P2
2023/10/11 00:00:40;;;;;;;5.07;4.53;;;21.20;63.70;22.40;100778.00;;;;5070751;28;20204;-49
2023/10/11 00:03:16;;;;;;;6.07;5.00;;;21.20;63.90;22.40;100788.00;;;;5067930;28;20221;-49
2023/10/11 00:05:43;;;;;;;5.03;4.50;;;21.10;64.00;22.40;100778.00;;;;5080957;28;20238;-50
2023/10/11 00:08:19;;;;;;;8.07;4.73;;;21.20;64.00;22.40;100776.00;;;;5089433;28;20187;-49
2023/10/11 00:10:53;;;;;;;5.10;4.43;;;21.10;63.20;22.30;100784.00;;;;5089368;28;20207;-49
2023/10/11 00:13:22;;;;;;;5.13;4.63;;;21.20;64.40;22.30;100779.00;;;;5089385;28;20238;-49
2023/10/11 00:15:50;;;;;;;6.17;4.87;;;21.20;64.40;22.30;100770.00;;;;5087727;28;20254;-50
2023/10/11 00:18:18;;;;;;;6.20;4.33;;;21.10;63.30;22.30;100777.00;;;;5088933;28;20235;-48
2023/10/11 00:20:51;;;;;;;5.27;4.43;;;21.10;64.10;22.30;100778.00;;;;5088462;28;20208;-50
2023/10/11 00:23:20;;;;;;;6.10;4.40;;;21.10;63.30;22.30;100769.00;;;;5089040;28;20212;-49
2023/10/11 00:25:46;;;;;;;5.37;4.13;;;21.00;64.40;22.30;100772.00;;;;5089107;28;20212;-50
2023/10/11 00:28:14;;;;;;;4.57;3.90;;;21.10;64.50;22.20;100768.00;;;;5070459;28;20226;-50
2023/10/11 00:30:40;;;;;;;7.17;4.70;;;21.10;64.40;22.30;100764.00;;;;5087706;28;20204;-50
2023/10/11 00:33:07;;;;;;;6.03;4.60;;;21.10;64.10;22.30;100769.00;;;;5089118;28;20784;-49
2023/10/11 00:35:41;;;;;;;5.97;4.60;;;21.10;63.90;22.20;100769.00;;;;5088812;28;20179;-48
2023/10/11 00:38:11;;;;;;;6.27;4.60;;;21.00;63.70;22.20;100772.00;;;;5088950;28;20184;-49
2023/10/11 00:40:37;;;;;;;6.67;4.40;;;21.00;63.50;22.20;100763.00;;;;5088647;28;20215;-50
2023/10/11 00:43:03;;;;;;;4.90;4.20;;;21.00;64.00;22.20;100773.00;;;;5088895;28;20197;-49
2023/10/11 00:45:36;;;;;;;4.90;4.40;;;21.00;64.70;22.20;100768.00;;;;5070448;28;20282;-50
2023/10/11 00:48:06;;;;;;;7.47;4.63;;;21.00;64.40;22.20;100777.00;;;;5087541;28;20552;-49
2023/10/11 00:50:32;;;;;;;4.90;4.33;;;21.00;64.30;22.20;100758.00;;;;5088366;28;20228;-49
2023/10/11 00:53:00;;;;;;;6.63;4.87;;;21.00;64.30;22.20;100763.00;;;;5088787;28;20241;-50
2023/10/11 00:55:29;;;;;;;8.60;4.50;;;21.00;64.60;22.20;100775.00;;;;5088688;28;20203;-49
2023/10/11 00:57:57;;;;;;;5.03;4.47;;;21.00;63.80;22.10;100703.00;;;;5088523;28;20184;-49
2023/10/11 01:00:23;;;;;;;4.87;4.37;;;21.00;64.40;22.10;100773.00;;;;5078573;28;20211;-49
2023/10/11 01:02:51;;;;;;;5.13;4.63;;;21.00;64.70;22.10;100774.00;;;;5088566;28;20232;-53
2023/10/11 01:05:18;;;;;;;5.30;4.50;;;21.00;64.10;22.10;100776.00;;;;5088423;28;20556;-53
2023/10/11 01:07:44;;;;;;;6.30;4.63;;;21.00;63.90;22.20;100776.00;;;;5088470;28;20733;-53
2023/10/11 01:10:10;;;;;;;6.20;4.57;;;21.00;64.00;22.20;100781.00;;;;5088395;28;20221;-53
2023/10/11 01:12:36;;;;;;;7.40;4.73;;;21.00;64.20;22.10;100770.00;;;;5088694;28;20217;-54
2023/10/11 01:15:02;;;;;;;7.53;4.70;;;20.90;64.00;22.10;100768.00;;;;5088538;28;20207;-52
2023/10/11 01:17:34;;;;;;;5.40;4.43;;;20.90;63.80;22.10;100762.00;;;;5088661;28;20173;-53
2023/10/11 01:20:00;;;;;;;5.93;4.87;;;21.00;64.80;22.10;100767.00;;;;5088033;28;20228;-53
2023/10/11 01:22:28;;;;;;;5.33;4.83;;;21.00;64.30;22.10;100771.00;;;;5087042;28;20204;-52
2023/10/11 01:24:55;;;;;;;6.07;4.40;;;20.80;64.00;22.10;100758.00;;;;5081410;28;20589;-53
2023/10/11 01:27:30;;;;;;;5.20;4.43;;;20.80;64.40;22.00;100758.00;;;;5085191;28;20674;-53
2023/10/11 01:29:57;;;;;;;6.10;4.30;;;20.90;64.90;22.00;100753.00;;;;5066154;28;20209;-54
2023/10/11 01:32:23;;;;;;;5.93;4.60;;;20.90;65.00;22.00;100744.00;;;;5068183;28;20184;-53
2023/10/11 01:34:49;;;;;;;6.93;4.43;;;20.90;64.40;22.00;100744.00;;;;5072016;28;20636;-53
2023/10/11 01:37:17;;;;;;;6.07;4.50;;;20.80;64.10;22.00;100733.00;;;;5071976;28;20190;-54
2023/10/11 01:39:43;;;;;;;7.13;4.73;;;20.90;64.50;22.00;100731.00;;;;5090183;28;20221;-53
2023/10/11 01:42:09;;;;;;;6.33;4.67;;;20.90;64.30;22.00;100727.00;;;;5104481;28;20201;-52
2023/10/11 01:44:36;;;;;;;7.07;4.60;;;20.90;64.50;22.00;100732.00;;;;5076343;28;20184;-53
2023/10/11 01:47:02;;;;;;;6.27;4.90;;;20.80;64.10;22.00;100730.00;;;;5091245;28;20299;-52
2023/10/11 01:49:27;;;;;;;6.87;4.83;;;20.90;64.70;22.00;100726.00;;;;5074827;28;20197;-53
2023/10/11 01:51:54;;;;;;;6.53;4.57;;;20.70;64.50;21.90;100731.00;;;;5092744;28;20635;-53
2023/10/11 01:54:22;;;;;;;4.67;4.13;;;20.80;65.00;21.90;100721.00;;;;5083725;28;20198;-54
2023/10/11 01:56:52;;;;;;;4.40;4.00;;;20.80;64.90;21.90;100718.00;;;;5087133;28;20170;-53
2023/10/11 01:59:18;;;;;;;6.27;4.43;;;20.90;65.00;21.90;100724.00;;;;5070628;28;20197;-53
2023/10/11 02:01:54;;;;;;;6.03;4.90;;;20.90;63.90;21.80;100726.00;;;;5071985;28;20177;-53
2023/10/11 02:04:20;;;;;;;7.60;4.77;;;20.50;65.20;21.80;100709.00;;;;5071767;28;20258;-52
2023/10/11 02:06:49;;;;;;;7.57;4.70;;;20.50;64.10;21.70;100724.00;;;;5075633;28;20297;-52
2023/10/11 02:09:20;;;;;;;5.30;4.80;;;20.60;65.40;21.70;100720.00;;;;5091238;28;20635;-53
2023/10/11 02:11:45;;;;;;;7.33;4.70;;;20.60;64.40;21.70;100718.00;;;;5089281;28;20180;-53
2023/10/11 02:14:13;;;;;;;4.60;4.10;;;20.70;65.50;21.70;100715.00;;;;5091453;28;20697;-52
2023/10/11 02:16:39;;;;;;;6.60;4.50;;;20.70;65.20;21.70;100723.00;;;;5091360;28;20185;-54
2023/10/11 02:19:05;;;;;;;7.60;4.63;;;20.70;64.70;21.70;100731.00;;;;5091196;28;20276;-53
2023/10/11 02:21:31;;;;;;;6.53;4.60;;;20.40;65.20;21.60;100719.00;;;;5091333;28;20176;-53
2023/10/11 02:23:59;;;;;;;5.43;4.77;;;20.40;66.00;21.60;100716.00;;;;5089798;28;20249;-53
2023/10/11 02:26:31;;;;;;;5.13;4.20;;;20.50;65.30;21.60;100707.00;;;;5081496;28;20293;-53
2023/10/11 02:29:00;;;;;;;5.80;4.70;;;20.50;65.70;21.60;100698.00;;;;5070972;28;20177;-53
2023/10/11 02:31:28;;;;;;;6.77;4.70;;;20.60;65.40;21.60;100712.00;;;;5070947;28;20588;-53
2023/10/11 02:34:10;;;;;;;5.00;4.50;;;20.60;64.80;21.40;100704.00;;;;5071058;28;20178;-54
2023/10/11 02:36:42;;;;;;;5.30;4.50;;;20.60;65.70;21.60;100703.00;;;;5084530;28;20182;-54
2023/10/11 02:39:07;;;;;;;6.00;4.77;;;20.60;65.40;21.60;100707.00;;;;5083393;28;20201;-54
2023/10/11 02:41:37;;;;;;;7.33;5.00;;;20.50;64.30;21.50;100707.00;;;;5074607;28;20842;-53
2023/10/11 02:44:02;;;;;;;5.30;4.63;;;20.40;65.50;21.50;100705.00;;;;5088146;28;20208;-53
2023/10/11 02:46:33;;;;;;;5.50;4.30;;;20.40;66.00;21.50;100703.00;;;;5088935;28;20224;-53
2023/10/11 02:49:06;;;;;;;9.47;4.40;;;20.50;65.80;21.50;100703.00;;;;5087971;28;20173;-49
2023/10/11 02:51:33;;;;;;;5.67;4.50;;;20.40;65.10;21.50;100699.00;;;;5077683;28;20172;-49
2023/10/11 02:54:05;;;;;;;5.67;4.50;;;20.50;66.10;21.50;100713.00;;;;5088233;28;20537;-48
2023/10/11 02:56:46;;;;;;;6.80;4.47;;;20.60;65.60;21.30;100712.00;;;;5063322;28;20292;-49
2023/10/11 02:59:19;;;;;;;5.67;4.30;;;20.50;65.70;21.50;100710.00;;;;5090985;28;20330;-49
2023/10/11 03:01:59;;;;;;;4.77;4.33;;;20.60;65.60;21.50;100707.00;;;;5090667;28;20189;-49
2023/10/11 03:04:28;;;;;;;5.47;4.07;;;20.60;66.00;21.50;100701.00;;;;5092141;28;20291;-49
2023/10/11 03:06:54;;;;;;;6.50;4.77;;;20.60;65.80;21.50;100704.00;;;;5092011;28;20208;-49
2023/10/11 03:09:19;;;;;;;4.73;4.33;;;20.50;65.20;21.50;100697.00;;;;5090323;28;20197;-49
2023/10/11 03:11:45;;;;;;;7.77;4.20;;;20.50;66.00;21.50;100700.00;;;;5082155;28;20203;-50
2023/10/11 03:14:15;;;;;;;7.20;4.93;;;20.50;67.30;21.50;100695.00;;;;5075607;28;20177;-50
2023/10/11 03:16:43;;;;;;;5.03;4.53;;;20.60;65.30;21.50;100699.00;;;;5071547;28;20205;-50
2023/10/11 03:19:11;;;;;;;6.37;4.30;;;20.50;65.80;21.50;100698.00;;;;5070218;28;20229;-49
2023/10/11 03:21:38;;;;;;;5.80;5.13;;;20.50;65.90;21.50;100698.00;;;;5071800;28;20209;-49
2023/10/11 03:24:05;;;;;;;4.83;4.23;;;20.60;65.90;21.50;100687.00;;;;5074428;28;20212;-49
2023/10/11 03:29:04;;;;;;;6.40;4.53;;;20.60;65.70;21.50;100694.00;;;;5071447;28;20174;-50
2023/10/11 03:31:31;;;;;;;6.60;4.53;;;20.50;64.90;21.50;100686.00;;;;5071159;28;20161;-51
2023/10/11 03:34:14;;;;;;;5.33;4.37;;;20.50;65.20;21.40;100692.00;;;;5071506;28;20197;-49
2023/10/11 03:36:51;;;;;;;5.20;4.60;;;20.40;65.70;21.40;100692.00;;;;5090930;28;20215;-50
2023/10/11 03:42:14;;;;;;;6.93;4.70;;;20.50;65.50;21.40;100685.00;;;;5085865;28;20191;-50
2023/10/11 03:44:45;;;;;;;5.73;4.33;;;20.40;65.00;21.40;100685.00;;;;5091819;28;20181;-50
2023/10/11 03:47:14;;;;;;;5.47;4.40;;;20.50;65.60;21.40;100683.00;;;;5092571;28;20236;-49
2023/10/11 03:52:16;;;;;;;5.00;4.20;;;20.40;65.70;21.30;100675.00;;;;5104795;28;20181;-56
2023/10/11 03:54:42;;;;;;;5.10;4.33;;;20.40;65.80;21.30;100675.00;;;;5100382;28;20177;-49
2023/10/11 03:57:09;;;;;;;5.93;4.57;;;20.40;65.40;21.30;100677.00;;;;5090766;28;20177;-49
2023/10/11 03:59:38;;;;;;;4.77;4.20;;;20.40;65.50;21.20;100682.00;;;;5085708;28;20204;-49
2023/10/11 04:02:09;;;;;;;5.30;4.80;;;20.40;65.50;21.30;100679.00;;;;5089818;28;20195;-49
2023/10/11 04:04:42;;;;;;;5.20;4.70;;;20.30;65.10;21.20;100680.00;;;;5089988;28;20187;-49
2023/10/11 04:07:12;;;;;;;5.10;4.60;;;20.30;65.30;21.20;100678.00;;;;5090706;28;20275;-49
2023/10/11 04:09:39;;;;;;;5.97;4.80;;;20.30;65.60;21.20;100680.00;;;;5090173;28;20682;-49
2023/10/11 04:12:05;;;;;;;7.27;4.87;;;20.30;65.60;21.20;100681.00;;;;5090323;28;20255;-48
2023/10/11 04:14:42;;;;;;;5.53;4.90;;;20.40;65.30;21.20;100674.00;;;;5089585;28;20272;-50
2023/10/11 04:19:53;;;;;;;6.60;4.47;;;20.30;65.20;21.10;100673.00;;;;5089952;28;20257;-49
2023/10/11 04:22:25;;;;;;;10.20;4.80;;;20.30;64.80;21.10;100679.00;;;;5090077;28;20172;-49
2023/10/11 04:24:54;;;;;;;9.10;5.07;;;20.30;64.30;21.10;100680.00;;;;5089833;28;20210;-50
2023/10/11 04:29:50;;;;;;;6.60;5.07;;;20.20;65.20;21.10;100668.00;;;;5089180;28;20955;-49
2023/10/11 04:32:45;;;;;;;7.60;4.93;;;20.20;64.10;21.10;100672.00;;;;5088921;28;20677;-50
2023/10/11 04:35:25;;;;;;;6.17;5.10;;;20.10;65.40;21.00;100671.00;;;;5089976;28;20205;-49
2023/10/11 04:37:54;;;;;;;5.27;4.60;;;20.00;64.00;21.00;100668.00;;;;5089681;28;20185;-49
2023/10/11 04:40:51;;;;;;;6.73;4.90;;;20.00;65.50;21.00;100673.00;;;;5089776;28;20215;-48
2023/10/11 04:43:29;;;;;;;7.93;4.53;;;20.00;63.90;20.90;100665.00;;;;5089242;28;20223;-50
2023/10/11 04:45:59;;;;;;;6.13;4.77;;;20.10;66.00;20.90;100686.00;;;;5089380;28;20209;-49
2023/10/11 04:48:29;;;;;;;5.73;4.67;;;20.10;64.70;20.90;100679.00;;;;5089593;28;20178;-50
2023/10/11 04:59:07;;;;;;;5.37;4.87;;;20.10;65.00;20.90;100681.00;;;;5083512;28;20288;-50
2023/10/11 05:04:26;;;;;;;6.00;5.00;;;20.10;64.90;20.90;100675.00;;;;5088931;28;20187;-50
2023/10/11 05:06:53;;;;;;;6.87;5.00;;;20.10;64.10;20.80;100688.00;;;;5088523;28;20199;-49
2023/10/11 05:11:53;;;;;;;5.87;5.23;;;20.10;63.70;20.80;100682.00;;;;5088929;28;20643;-51
2023/10/11 05:14:37;;;;;;;7.40;5.03;;;20.00;64.70;20.80;100688.00;;;;5088295;28;20173;-48
2023/10/11 05:19:56;;;;;;;6.50;4.73;;;20.00;64.50;20.80;100690.00;;;;5077594;28;20288;-49
2023/10/11 05:32:41;;;;;;;5.43;4.60;;;20.00;64.80;20.80;100685.00;;;;5088853;28;20263;-49
2023/10/11 05:51:21;;;;;;;6.87;5.33;;;19.90;63.30;20.70;100694.00;;;;5096289;28;20211;-49
2023/10/11 05:53:49;;;;;;;4.97;4.40;;;19.80;63.30;20.70;100676.00;;;;5085687;28;20683;-49
2023/10/11 05:56:20;;;;;;;6.70;5.03;;;19.90;65.00;20.60;100690.00;;;;5088892;28;20252;-49
2023/10/11 05:58:51;;;;;;;7.00;4.40;;;19.90;64.30;20.60;100681.00;;;;5088082;28;20560;-49
2023/10/11 06:01:21;;;;;;;6.20;4.80;;;19.90;64.70;20.60;100666.00;;;;5088507;28;20185;-50
2023/10/11 06:03:51;;;;;;;8.10;4.97;;;19.90;64.60;20.70;100701.00;;;;5088625;28;20245;-50
2023/10/11 06:09:18;;;;;;;6.70;4.87;;;19.90;64.40;20.70;100693.00;;;;5031994;28;20266;-49
2023/10/11 06:11:50;;;;;;;8.50;4.80;;;19.90;63.80;20.70;100692.00;;;;5088479;28;20177;-49
2023/10/11 06:14:18;;;;;;;6.47;5.20;;;19.90;63.90;20.70;100698.00;;;;5088301;28;20177;-49
2023/10/11 06:16:49;;;;;;;6.30;5.20;;;19.90;63.90;20.70;100690.00;;;;5088361;28;20173;-49
2023/10/11 06:19:16;;;;;;;6.50;4.90;;;19.80;63.60;20.70;100685.00;;;;5090008;28;20276;-49
2023/10/11 06:21:56;;;;;;;6.20;4.77;;;19.80;64.00;20.70;100681.00;;;;5092085;28;20523;-49
2023/10/11 06:24:35;;;;;;;6.60;5.40;;;19.80;64.00;20.50;100678.00;;;;5092416;28;20559;-50
2023/10/11 06:29:37;;;;;;;6.27;5.20;;;19.70;63.70;20.60;100683.00;;;;5091738;28;20656;-50
2023/10/11 06:32:10;;;;;;;8.90;5.17;;;19.80;64.50;20.60;100676.00;;;;5091157;28;20201;-49
2023/10/11 06:34:36;;;;;;;6.30;4.63;;;19.60;63.60;20.60;100677.00;;;;5092084;28;20695;-48
2023/10/11 06:37:02;;;;;;;7.57;4.87;;;19.60;63.80;20.60;100671.00;;;;5092133;28;20181;-49
2023/10/11 06:42:23;;;;;;;6.73;4.73;;;19.70;63.70;20.50;100675.00;;;;5091965;28;20192;-50
2023/10/11 06:44:58;;;;;;;8.70;4.60;;;19.60;64.10;20.50;100685.00;;;;5082529;28;20193;-50
2023/10/11 06:47:33;;;;;;;7.70;4.90;;;19.70;64.10;20.50;100693.00;;;;5083711;28;20647;-49
2023/10/11 06:49:59;;;;;;;6.37;4.50;;;19.80;64.70;20.50;100690.00;;;;5085807;28;20208;-51
2023/10/11 06:52:30;;;;;;;11.43;4.70;;;19.80;63.80;20.50;100699.00;;;;5090539;28;20681;-49
2023/10/11 06:55:14;;;;;;;7.80;4.90;;;19.80;63.70;20.50;100699.00;;;;5091500;28;20184;-49
2023/10/11 06:57:50;;;;;;;6.47;4.67;;;19.80;64.10;20.50;100702.00;;;;5091777;28;20177;-49
2023/10/11 07:00:21;;;;;;;6.37;4.57;;;19.80;64.20;20.50;100697.00;;;;5091156;28;20196;-49
2023/10/11 07:03:26;;;;;;;7.87;4.70;;;19.80;63.80;20.50;100695.00;;;;5088418;28;20173;-48
2023/10/11 07:06:00;;;;;;;7.77;5.13;;;19.80;63.20;20.50;100705.00;;;;5080831;28;20623;-49
2023/10/11 07:08:32;;;;;;;5.90;5.00;;;19.70;63.50;20.40;100697.00;;;;5071617;28;20181;-49
2023/10/11 07:13:49;;;;;;;9.00;4.90;;;19.50;63.80;20.40;100704.00;;;;5091004;28;20225;-48
2023/10/11 07:16:20;;;;;;;9.03;4.70;;;19.50;64.00;20.40;100698.00;;;;5091332;28;20187;-49
2023/10/11 07:18:46;;;;;;;7.27;4.90;;;19.30;64.20;20.30;100705.00;;;;5091467;28;20181;-48
2023/10/11 07:21:15;;;;;;;7.87;4.67;;;19.30;64.70;20.30;100705.00;;;;5086718;28;20259;-48
2023/10/11 07:29:05;;;;;;;5.63;4.57;;;19.30;64.90;20.30;100707.00;;;;5087017;28;20731;-53
2023/10/11 07:31:37;;;;;;;6.93;4.60;;;19.40;65.20;20.30;100698.00;;;;5099963;28;20168;-50
2023/10/11 07:34:09;;;;;;;8.80;5.10;;;19.50;65.40;20.30;100702.00;;;;5075599;28;20173;-49
2023/10/11 07:36:38;;;;;;;7.43;4.60;;;19.40;64.70;20.30;100710.00;;;;5073519;28;20712;-50
2023/10/11 07:41:51;;;;;;;10.47;4.93;;;19.30;65.20;20.30;100705.00;;;;5091814;28;20540;-48
2023/10/11 07:44:20;;;;;;;9.77;4.90;;;19.40;65.60;20.30;100702.00;;;;5092534;28;20650;-50
2023/10/11 07:46:46;;;;;;;8.03;4.77;;;19.50;65.40;20.30;100708.00;;;;5107847;28;20245;-49
2023/10/11 07:49:22;;;;;;;7.23;4.97;;;19.40;65.10;20.30;100713.00;;;;5093742;28;20196;-49
2023/10/11 07:51:49;;;;;;;7.90;4.70;;;19.50;65.40;20.30;100702.00;;;;5090310;28;20641;-53
2023/10/11 07:54:20;;;;;;;6.53;4.80;;;19.50;65.40;20.30;100704.00;;;;5090156;28;20168;-50
2023/10/11 07:56:52;;;;;;;6.77;4.70;;;19.40;65.50;20.30;100708.00;;;;5089410;28;20178;-49
2023/10/11 07:59:21;;;;;;;8.93;4.80;;;19.40;65.50;20.30;100711.00;;;;5089563;28;20189;-49
2023/10/11 08:01:47;;;;;;;8.33;4.97;;;19.40;65.80;20.40;100711.00;;;;5085404;28;20293;-50
2023/10/11 08:04:18;;;;;;;7.23;4.80;;;19.40;66.80;20.30;100701.00;;;;5080502;28;20184;-48
2023/10/11 08:06:46;;;;;;;6.90;5.17;;;19.30;66.70;20.30;100694.00;;;;5089132;28;20261;-48
2023/10/11 08:09:25;;;;;;;6.63;4.87;;;19.20;66.20;20.30;100690.00;;;;5084146;28;20194;-49
2023/10/11 08:11:56;;;;;;;7.97;5.23;;;19.20;66.30;20.20;100684.00;;;;5085381;28;20373;-49
2023/10/11 08:14:28;;;;;;;9.60;5.00;;;19.20;66.00;20.20;100645.00;;;;5088624;28;20647;-49
2023/10/11 08:16:59;;;;;;;6.83;4.63;;;19.20;66.60;20.20;100688.00;;;;5078567;28;20187;-48
2023/10/11 08:19:25;;;;;;;7.90;4.80;;;19.20;66.40;20.20;100688.00;;;;5086522;28;20735;-49
2023/10/11 08:21:57;;;;;;;7.87;4.97;;;19.30;66.20;20.20;100691.00;;;;5089591;28;20204;-49
2023/10/11 08:24:27;;;;;;;13.03;5.27;;;19.30;66.00;20.20;100685.00;;;;5087222;28;20265;-49
2023/10/11 08:27:05;;;;;;;10.07;4.87;;;19.30;66.20;20.20;100678.00;;;;5089959;28;20314;-49
2023/10/11 08:29:32;;;;;;;9.70;4.90;;;19.30;66.10;20.20;100618.00;;;;5089611;28;20202;-49
2023/10/11 08:31:58;;;;;;;7.40;4.90;;;19.40;66.00;20.30;100681.00;;;;5090121;28;20185;-49
2023/10/11 08:34:27;;;;;;;8.83;4.93;;;19.40;65.90;20.30;100675.00;;;;5083478;28;20177;-49
2023/10/11 08:36:56;;;;;;;9.87;5.07;;;19.40;66.00;20.30;100680.00;;;;5070035;28;20647;-49
2023/10/11 08:42:16;;;;;;;9.90;5.10;;;19.40;66.20;20.30;100687.00;;;;5084791;28;20202;-49
2023/10/11 08:44:45;;;;;;;8.67;4.60;;;19.40;66.30;20.30;100688.00;;;;5088075;28;20263;-49
2023/10/11 08:47:13;;;;;;;6.07;4.37;;;19.50;66.20;20.30;100696.00;;;;5069036;28;20318;-48
2023/10/11 08:49:46;;;;;;;9.17;4.60;;;19.40;66.30;20.30;100702.00;;;;5072175;28;20199;-50
2023/10/11 08:52:12;;;;;;;7.87;4.73;;;19.50;66.70;20.30;100700.00;;;;5087657;28;20189;-49
2023/10/11 08:54:38;;;;;;;6.73;4.70;;;19.50;66.80;20.40;100707.00;;;;5053687;28;20183;-49
2023/10/11 08:57:04;;;;;;;8.93;4.90;;;19.50;66.80;20.40;100692.00;;;;5077548;28;20177;-49
2023/10/11 08:59:39;;;;;;;7.53;5.07;;;19.60;66.90;20.40;100706.00;;;;5089753;28;20674;-48
2023/10/11 09:02:07;;;;;;;8.83;5.07;;;19.60;67.40;20.40;100704.00;;;;5089638;28;20181;-49
2023/10/11 09:04:35;;;;;;;14.27;5.50;;;19.60;67.30;20.40;100712.00;;;;5089476;28;20192;-49
2023/10/11 09:07:01;;;;;;;9.30;4.97;;;19.60;67.70;20.50;100713.00;;;;5090135;28;20423;-48
2023/10/11 09:09:33;;;;;;;8.23;4.80;;;19.60;67.60;20.40;100710.00;;;;5085787;28;20252;-47
2023/10/11 09:11:59;;;;;;;9.03;5.30;;;19.60;68.00;20.40;100714.00;;;;5063915;28;20788;-49
2023/10/11 09:14:27;;;;;;;7.30;4.87;;;19.60;67.70;20.40;100716.00;;;;5087951;28;20203;-50
2023/10/11 09:16:57;;;;;;;10.47;5.13;;;19.60;68.20;20.40;100706.00;;;;5088026;28;20195;-49
2023/10/11 09:19:23;;;;;;;7.63;5.10;;;19.60;68.40;20.50;100696.00;;;;5090108;28;20323;-49
2023/10/11 09:22:05;;;;;;;10.00;5.37;;;19.70;68.40;20.50;100695.00;;;;5087978;28;20481;-49
2023/10/11 09:24:39;;;;;;;6.10;4.90;;;19.70;68.60;20.50;100708.00;;;;5089192;28;20188;-48
2023/10/11 09:29:57;;;;;;;8.17;5.23;;;19.70;66.90;20.50;100705.00;;;;5095930;28;20185;-48
2023/10/11 09:32:31;;;;;;;8.63;5.30;;;19.80;67.30;20.60;100689.00;;;;5106898;28;20177;-49
2023/10/11 09:34:57;;;;;;;6.73;4.83;;;19.80;67.40;20.60;100687.00;;;;5090238;28;20198;-50
2023/10/11 09:37:23;;;;;;;10.17;4.90;;;19.90;67.20;20.40;100681.00;;;;5090502;28;20351;-49
2023/10/11 09:39:51;;;;;;;7.40;5.07;;;19.90;67.30;20.70;100688.00;;;;5088971;28;20203;-49
2023/10/11 09:42:16;;;;;;;11.33;5.57;;;19.90;66.90;20.70;100700.00;;;;5091577;28;20218;-49
2023/10/11 09:44:45;;;;;;;7.77;5.00;;;20.00;66.80;20.70;100697.00;;;;5098195;28;20618;-49
2023/10/11 09:47:16;;;;;;;6.83;4.90;;;20.00;67.30;20.80;100695.00;;;;5100409;28;20204;-49
2023/10/11 09:49:42;;;;;;;6.90;4.50;;;20.00;67.10;20.80;100708.00;;;;5089661;28;20221;-49
2023/10/11 09:52:15;;;;;;;8.40;4.77;;;20.10;67.20;20.80;100708.00;;;;5089664;28;20173;-49
2023/10/11 09:54:41;;;;;;;8.50;5.20;;;20.10;67.30;20.90;100703.00;;;;5092142;28;20202;-49
2023/10/11 09:57:29;;;;;;;7.27;5.03;;;20.20;67.30;20.90;100710.00;;;;5092125;28;20658;-49
2023/10/11 10:00:18;;;;;;;8.27;4.47;;;20.20;67.50;20.90;100709.00;;;;5093052;28;20193;-49
2023/10/11 10:02:51;;;;;;;7.93;4.83;;;20.20;67.50;21.00;100700.00;;;;5075319;28;20616;-48
2023/10/11 10:05:17;;;;;;;8.53;5.50;;;20.20;67.60;21.00;100713.00;;;;5093278;28;20172;-49
2023/10/11 10:07:43;;;;;;;9.10;5.40;;;20.20;68.00;21.00;100715.00;;;;5094085;28;20212;-52
2023/10/11 10:10:11;;;;;;;9.23;4.90;;;20.30;66.80;21.00;100726.00;;;;5081825;28;20310;-49
2023/10/11 10:12:55;;;;;;;7.63;4.87;;;20.40;66.50;20.90;100723.00;;;;5072797;28;20233;-49
2023/10/11 10:15:23;;;;;;;8.17;5.07;;;20.60;64.50;21.20;100714.00;;;;5072993;28;20561;-48
2023/10/11 10:18:00;;;;;;;6.33;4.80;;;20.60;64.80;21.20;100710.00;;;;5073043;28;20188;-49
2023/10/11 10:20:34;;;;;;;10.53;5.70;;;20.70;64.70;21.30;100711.00;;;;5072843;28;20208;-49
2023/10/11 10:23:15;;;;;;;8.67;5.20;;;20.70;64.50;21.30;100707.00;;;;5073211;28;20218;-48
2023/10/11 10:26:11;;;;;;;9.13;4.80;;;20.80;64.10;21.40;100700.00;;;;5073092;28;20182;-49
2023/10/11 10:28:39;;;;;;;9.30;4.90;;;20.70;64.20;21.40;100698.00;;;;5063516;28;20197;-49
2023/10/11 10:31:09;;;;;;;7.43;4.67;;;20.70;65.00;21.40;100700.00;;;;5072818;28;20258;-49
2023/10/11 10:33:36;;;;;;;9.40;4.90;;;20.80;64.40;21.50;100693.00;;;;5072740;28;20200;-48
2023/10/11 10:36:28;;;;;;;10.23;5.13;;;20.80;64.90;21.50;100699.00;;;;5072323;28;20208;-49
2023/10/11 10:39:36;;;;;;;7.30;4.97;;;20.90;64.30;21.50;100701.00;;;;5085626;28;20550;-48
2023/10/11 10:42:12;;;;;;;9.03;5.13;;;20.90;64.80;21.60;100700.00;;;;5092046;28;20235;-49
2023/10/11 10:44:51;;;;;;;7.67;4.53;;;21.30;62.50;21.70;100691.00;;;;5092536;28;20196;-49
2023/10/11 10:47:32;;;;;;;7.77;4.90;;;21.50;59.50;21.70;100695.00;;;;5095937;28;20211;-49
2023/10/11 10:50:04;;;;;;;8.50;4.80;;;21.70;59.20;21.80;100694.00;;;;5096476;28;20192;-49
2023/10/11 10:52:30;;;;;;;6.50;4.50;;;21.70;58.30;21.90;100688.00;;;;5093514;28;20181;-50
2023/10/11 10:55:01;;;;;;;7.13;4.80;;;21.80;58.20;22.00;100690.00;;;;5092977;28;20177;-49
2023/10/11 10:57:31;;;;;;;7.27;4.77;;;21.80;58.00;22.00;100670.00;;;;5092181;28;20666;-48
2023/10/11 11:00:20;;;;;;;9.70;4.63;;;21.80;58.20;22.10;100676.00;;;;5091973;28;20208;-49
2023/10/11 11:02:46;;;;;;;7.27;4.77;;;21.90;57.50;22.20;100673.00;;;;5092087;28;20462;-49
2023/10/11 11:05:15;;;;;;;9.00;4.80;;;22.00;57.60;22.20;100665.00;;;;5091693;28;20177;-50
2023/10/11 11:07:47;;;;;;;6.97;4.47;;;22.00;57.80;22.30;100668.00;;;;5092846;28;20201;-48
2023/10/11 11:10:21;;;;;;;7.63;4.97;;;22.00;57.60;22.30;100667.00;;;;5080174;28;20242;-49
2023/10/11 11:12:50;;;;;;;10.77;4.70;;;22.00;57.60;22.40;100651.00;;;;5084576;28;20172;-50
2023/10/11 11:15:22;;;;;;;9.63;4.50;;;22.10;57.20;22.40;100663.00;;;;5090379;28;20184;-49
2023/10/11 11:17:51;;;;;;;9.00;4.40;;;22.00;57.90;22.50;100658.00;;;;5087135;28;20269;-49
2023/10/11 11:22:47;;;;;;;9.50;5.00;;;22.20;57.90;22.50;100665.00;;;;5091495;28;20214;-49
2023/10/11 11:25:34;;;;;;;6.07;4.47;;;22.20;57.60;22.60;100661.00;;;;5091303;28;20188;-49
2023/10/11 11:28:17;;;;;;;7.60;4.40;;;22.30;56.70;22.70;100663.00;;;;5091595;28;20243;-49
2023/10/11 11:30:52;;;;;;;9.67;4.63;;;22.20;57.50;22.70;100665.00;;;;5079555;28;20193;-49
2023/10/11 11:34:07;;;;;;;10.37;4.90;;;22.20;56.90;22.70;100655.00;;;;5073521;28;20180;-48
2023/10/11 11:36:30;;;;;;;7.93;4.40;;;22.20;56.10;22.70;100655.00;;;;5068893;28;20296;-50
2023/10/11 11:39:17;;;;;;;9.20;5.00;;;22.40;56.30;22.70;100652.00;;;;5085459;28;20654;-48
2023/10/11 11:41:58;;;;;;;8.17;4.63;;;22.40;56.00;22.80;100642.00;;;;5091599;28;20238;-49
2023/10/11 11:44:27;;;;;;;9.77;4.57;;;22.30;56.60;22.80;100643.00;;;;5081100;28;20185;-49
2023/10/11 11:46:54;;;;;;;6.70;4.50;;;22.40;56.50;22.80;100652.00;;;;5093326;28;20205;-50
2023/10/11 11:49:24;;;;;;;12.80;4.80;;;22.50;56.40;22.90;100650.00;;;;5080407;28;20197;-49
2023/10/11 11:51:51;;;;;;;8.97;4.63;;;22.60;55.20;22.90;100647.00;;;;5070756;28;20643;-49
2023/10/11 11:54:20;;;;;;;11.97;4.87;;;22.70;55.00;23.00;100656.00;;;;5052141;28;20573;-49
2023/10/11 11:56:46;;;;;;;8.17;4.73;;;22.70;55.30;23.00;100643.00;;;;5070915;28;20275;-50
2023/10/11 11:59:18;;;;;;;8.10;4.63;;;22.70;55.20;23.10;100635.00;;;;5074498;28;20775;-49
2023/10/11 12:01:49;;;;;;;8.77;4.97;;;22.80;55.40;23.10;100632.00;;;;5086258;28;20635;-49
2023/10/11 12:04:29;;;;;;;12.77;5.20;;;22.90;55.00;23.20;100624.00;;;;5083319;28;20186;-48
2023/10/11 12:07:00;;;;;;;11.03;5.07;;;22.90;54.80;23.20;100635.00;;;;5084664;28;20193;-49
2023/10/11 12:09:32;;;;;;;9.07;4.60;;;22.80;55.10;23.20;100639.00;;;;5063800;28;20197;-49
2023/10/11 12:12:08;;;;;;;11.37;5.20;;;22.80;55.00;23.20;100642.00;;;;5090517;28;20173;-49
2023/10/11 12:14:37;;;;;;;8.23;4.90;;;22.80;54.70;23.20;100639.00;;;;5087861;28;20181;-49
2023/10/11 12:17:32;;;;;;;10.03;4.70;;;22.70;55.20;23.30;100632.00;;;;5074750;28;20235;-49
2023/10/11 12:19:57;;;;;;;9.23;4.80;;;22.60;56.20;23.20;100630.00;;;;5082456;28;20284;-49
2023/10/11 12:22:23;;;;;;;11.83;5.10;;;22.70;56.20;23.20;100625.00;;;;5090566;28;20276;-49
2023/10/11 12:24:49;;;;;;;7.73;4.60;;;22.70;56.10;23.30;100616.00;;;;5090357;28;20188;-49
2023/10/11 12:27:16;;;;;;;11.93;5.23;;;22.60;56.70;23.30;100610.00;;;;5090173;28;20278;-49